createdAt,value
2018-11-28T00:01:36.925Z,22.60
2018-11-28T00:05:47.697Z,21.10
2018-11-28T00:10:04.346Z,22.27
2018-11-28T00:14:12.064Z,23.63
2018-11-28T00:18:21.065Z,20.60
2018-11-28T00:22:28.787Z,22.23
2018-11-28T00:26:36.828Z,21.17
2018-11-28T00:30:47.398Z,23.07
2018-11-28T00:34:55.229Z,22.10
2018-11-28T00:39:03.003Z,22.30
2018-11-28T00:43:11.716Z,21.50
2018-11-28T00:47:19.470Z,21.73
2018-11-28T00:51:27.386Z,22.13
2018-11-28T00:55:35.368Z,21.77
2018-11-28T00:59:43.196Z,20.90
2018-11-28T01:03:56.302Z,21.60
2018-11-28T01:08:04.321Z,21.23
2018-11-28T01:12:12.112Z,22.20
2018-11-28T01:16:20.090Z,22.13
2018-11-28T01:20:30.464Z,22.70
2018-11-28T01:24:38.877Z,21.20
2018-11-28T01:28:48.876Z,22.73
2018-11-28T01:32:56.665Z,22.77
2018-11-28T01:37:04.426Z,22.07
2018-11-28T01:41:12.114Z,21.40
2018-11-28T01:45:21.441Z,21.20
2018-11-28T01:49:29.331Z,23.00
2018-11-28T01:53:37.957Z,23.63
2018-11-28T01:57:45.730Z,22.00
2018-11-28T02:01:53.768Z,22.07
2018-11-28T02:06:01.828Z,22.50
2018-11-28T02:10:15.869Z,21.77
2018-11-28T02:14:23.592Z,24.33
2018-11-28T02:18:31.322Z,22.37
2018-11-28T02:22:39.092Z,22.77
2018-11-28T02:26:46.875Z,21.70
2018-11-28T02:30:54.511Z,22.67
2018-11-28T02:35:02.136Z,22.57
2018-11-28T02:39:12.255Z,24.40
2018-11-28T02:43:19.900Z,23.10
2018-11-28T02:47:27.617Z,23.43
2018-11-28T02:51:35.599Z,22.70
2018-11-28T02:55:43.409Z,23.47
2018-11-28T02:59:51.153Z,21.77
2018-11-28T03:03:58.970Z,22.50
2018-11-28T03:08:06.518Z,23.07
2018-11-28T03:12:14.053Z,24.60
2018-11-28T03:16:21.736Z,23.13
2018-11-28T03:20:29.565Z,24.73
2018-11-28T03:24:37.287Z,24.10
2018-11-28T03:28:45.014Z,22.93
2018-11-28T03:32:54.900Z,23.03
2018-11-28T03:37:02.517Z,23.97
2018-11-28T03:41:10.408Z,23.07
2018-11-28T03:45:18.932Z,23.87
2018-11-28T03:49:26.685Z,24.13
2018-11-28T03:53:35.399Z,23.07
2018-11-28T03:57:43.427Z,23.77
2018-11-28T04:01:52.147Z,22.17
2018-11-28T04:06:00.012Z,22.77
2018-11-28T04:10:15.735Z,22.30
2018-11-28T04:14:23.469Z,22.67
2018-11-28T04:18:31.367Z,21.73
2018-11-28T04:22:39.115Z,24.57
2018-11-28T04:26:46.919Z,22.23
2018-11-28T04:30:54.868Z,21.30
2018-11-28T04:35:02.496Z,21.17
2018-11-28T04:39:11.649Z,22.20
2018-11-28T04:43:19.569Z,21.77
2018-11-28T04:47:27.343Z,21.30
2018-11-28T04:51:35.325Z,20.20
2018-11-28T04:55:42.876Z,22.30
2018-11-28T04:59:50.480Z,23.80
2018-11-28T05:03:58.363Z,23.23
2018-11-28T05:08:07.572Z,21.97
2018-11-28T05:12:18.246Z,22.50
2018-11-28T05:16:26.865Z,24.07
2018-11-28T05:20:38.317Z,23.63
2018-11-28T05:24:46.255Z,23.20
2018-11-28T05:28:56.631Z,24.27
2018-11-28T05:33:04.655Z,23.97
2018-11-28T05:37:15.642Z,22.83
2018-11-28T05:41:23.671Z,24.20
2018-11-28T05:45:31.511Z,24.60
2018-11-28T05:49:39.308Z,24.00
2018-11-28T05:53:47.090Z,23.17
2018-11-28T05:57:54.910Z,22.83
2018-11-28T06:02:03.041Z,23.30
2018-11-28T06:06:11.155Z,22.77
2018-11-28T06:10:18.672Z,21.93
2018-11-28T06:14:26.897Z,23.67
2018-11-28T06:18:34.702Z,23.90
2018-11-28T06:22:42.386Z,24.03
2018-11-28T06:26:50.267Z,23.53
2018-11-28T06:30:57.943Z,23.53
2018-11-28T06:35:06.767Z,23.87
2018-11-28T06:39:14.577Z,23.03
2018-11-28T06:43:22.268Z,23.43
2018-11-28T06:47:29.893Z,24.87
2018-11-28T06:51:37.773Z,22.53
2018-11-28T06:55:45.654Z,22.80
2018-11-28T06:59:53.207Z,23.17
2018-11-28T07:04:01.276Z,24.33
2018-11-28T07:08:09.782Z,24.30
2018-11-28T07:12:17.508Z,25.03
2018-11-28T07:16:25.280Z,25.63
2018-11-28T07:20:33.072Z,24.50
2018-11-28T07:24:40.640Z,24.60
2018-11-28T07:28:48.260Z,24.23
2018-11-28T07:33:00.139Z,23.83
2018-11-28T07:37:08.435Z,24.73
2018-11-28T07:41:16.003Z,24.40
2018-11-28T07:45:23.773Z,23.90
2018-11-28T07:49:33.157Z,24.17
2018-11-28T07:53:41.061Z,25.23
2018-11-28T07:57:48.938Z,24.80
2018-11-28T08:01:57.034Z,25.17
2018-11-28T08:06:07.854Z,26.13
2018-11-28T08:10:27.754Z,23.87
2018-11-28T08:14:36.808Z,25.77
2018-11-28T08:18:44.599Z,26.27
2018-11-28T08:22:52.319Z,25.93
2018-11-28T08:27:00.112Z,27.00
2018-11-28T08:31:08.274Z,28.80
2018-11-28T08:35:16.571Z,26.87
2018-11-28T08:39:24.675Z,26.07
2018-11-28T08:43:32.431Z,27.93
2018-11-28T08:47:40.311Z,26.60
2018-11-28T08:51:48.241Z,25.23
2018-11-28T08:55:56.496Z,27.23
2018-11-28T09:00:13.137Z,26.60
2018-11-28T09:04:22.637Z,27.30
2018-11-28T09:08:31.086Z,26.10
2018-11-28T09:12:38.824Z,25.87
2018-11-28T09:16:53.567Z,26.07
2018-11-28T09:21:02.127Z,25.73
2018-11-28T09:25:17.974Z,27.90
2018-11-28T09:29:41.199Z,26.90
2018-11-28T09:33:49.201Z,26.37
2018-11-28T09:37:57.209Z,26.70
2018-11-28T09:42:04.839Z,23.50
2018-11-28T09:46:12.815Z,24.93
2018-11-28T09:50:25.989Z,23.47
2018-11-28T09:54:33.702Z,25.47
2018-11-28T09:58:41.493Z,24.30
2018-11-28T10:02:52.374Z,26.23
2018-11-28T10:07:02.662Z,24.20
2018-11-28T10:11:10.521Z,23.40
2018-11-28T10:15:26.245Z,23.43
2018-11-28T10:19:35.210Z,24.73
2018-11-28T10:23:43.500Z,23.57
2018-11-28T10:27:59.577Z,23.43
2018-11-28T10:32:08.082Z,23.00
2018-11-28T10:36:17.176Z,23.17
2018-11-28T10:40:26.416Z,24.70
2018-11-28T10:44:34.340Z,23.43
2018-11-28T10:48:42.204Z,22.87
2018-11-28T10:52:50.026Z,23.13
2018-11-28T10:56:57.555Z,23.60
2018-11-28T11:01:22.485Z,23.23
2018-11-28T11:05:48.659Z,22.30
2018-11-28T11:10:13.915Z,23.17
2018-11-28T11:14:39.303Z,23.10
2018-11-28T11:18:47.265Z,22.23
2018-11-28T11:22:54.935Z,22.70
2018-11-28T11:27:02.600Z,21.40
2018-11-28T11:31:10.960Z,21.83
2018-11-28T11:35:18.572Z,21.90
2018-11-28T11:39:26.318Z,21.03
2018-11-28T11:43:38.441Z,21.30
2018-11-28T11:47:46.439Z,19.83
2018-11-28T11:51:54.115Z,20.00
2018-11-28T11:56:01.635Z,19.73
2018-11-28T12:00:22.923Z,20.67
2018-11-28T12:04:30.567Z,20.87
2018-11-28T12:08:38.921Z,21.87
2018-11-28T12:12:51.631Z,20.73
2018-11-28T12:16:56.888Z,21.00
2018-11-28T12:21:07.663Z,19.73
2018-11-28T12:25:15.943Z,19.63
2018-11-28T12:29:23.678Z,20.77
2018-11-28T12:33:31.521Z,19.27
2018-11-28T12:37:42.670Z,19.83
2018-11-28T12:41:50.482Z,21.33
2018-11-28T12:45:59.541Z,22.10
2018-11-28T12:50:20.643Z,20.00
2018-11-28T12:54:28.402Z,19.00
2018-11-28T12:58:36.124Z,19.97
2018-11-28T13:02:44.487Z,19.80
2018-11-28T13:06:52.849Z,40.30
2018-11-28T13:11:00.611Z,19.33
2018-11-28T13:15:11.908Z,19.73
2018-11-28T13:19:19.491Z,20.10
2018-11-28T13:23:27.371Z,19.87
2018-11-28T13:27:35.112Z,21.10
2018-11-28T13:31:42.924Z,22.67
2018-11-28T13:35:50.658Z,19.90
2018-11-28T13:39:58.818Z,20.47
2018-11-28T13:44:08.158Z,19.93
2018-11-28T13:48:16.742Z,20.80
2018-11-28T13:52:24.665Z,21.33
2018-11-28T13:57:06.099Z,22.00
2018-11-28T14:00:44.732Z,21.63
2018-11-28T14:04:52.653Z,19.60
2018-11-28T14:09:00.281Z,20.53
2018-11-28T14:13:08.410Z,21.60
2018-11-28T14:17:16.864Z,21.67
2018-11-28T14:21:30.976Z,22.10
2018-11-28T14:25:42.880Z,21.70
2018-11-28T14:29:50.809Z,20.53
2018-11-28T14:33:58.372Z,20.93
2018-11-28T14:38:08.825Z,20.80
2018-11-28T14:42:17.243Z,19.87
2018-11-28T14:46:25.158Z,19.77
2018-11-28T14:50:34.188Z,20.33
2018-11-28T14:54:41.974Z,21.23
2018-11-28T14:58:49.775Z,20.63
2018-11-28T15:03:20.838Z,20.67
2018-11-28T15:07:29.325Z,20.07
2018-11-28T15:11:37.107Z,20.63
2018-11-28T15:15:45.049Z,20.73
2018-11-28T15:19:53.459Z,18.63
2018-11-28T15:24:02.493Z,20.07
2018-11-28T15:28:12.180Z,19.77
2018-11-28T15:32:23.370Z,22.17
2018-11-28T15:36:31.695Z,18.63
2018-11-28T15:41:03.224Z,19.37
2018-11-28T15:45:18.519Z,20.57
2018-11-28T15:49:26.371Z,20.53
2018-11-28T15:53:35.742Z,20.30
2018-11-28T15:57:44.568Z,20.67
2018-11-28T16:01:55.171Z,20.87
2018-11-28T16:06:05.401Z,21.17
2018-11-28T16:10:33.720Z,21.20
2018-11-28T16:14:43.473Z,21.93
2018-11-28T16:18:51.126Z,21.47
2018-11-28T16:23:04.367Z,20.97
2018-11-28T16:27:08.382Z,21.23
2018-11-28T16:31:16.414Z,20.10
2018-11-28T16:35:32.732Z,19.13
2018-11-28T16:39:38.891Z,19.73
2018-11-28T16:43:46.690Z,19.03
2018-11-28T16:47:54.693Z,20.83
2018-11-28T16:52:02.504Z,20.77
2018-11-28T16:56:10.513Z,21.70
2018-11-28T17:00:21.530Z,19.93
2018-11-28T17:04:33.623Z,18.43
2018-11-28T17:08:42.959Z,19.80
2018-11-28T17:12:53.572Z,20.67
2018-11-28T17:17:02.522Z,21.53
2018-11-28T17:21:10.775Z,19.90
2018-11-28T17:25:29.706Z,19.73
2018-11-28T17:29:38.223Z,18.93
2018-11-28T17:33:46.023Z,20.70
2018-11-28T17:37:54.354Z,18.57
2018-11-28T17:42:02.137Z,19.20
2018-11-28T17:46:10.056Z,19.53
2018-11-28T17:50:30.658Z,19.50
2018-11-28T17:54:38.468Z,19.70
2018-11-28T17:58:46.421Z,20.30
2018-11-28T18:02:54.082Z,19.97
2018-11-28T18:07:02.795Z,19.53
2018-11-28T18:11:18.423Z,20.17
2018-11-28T18:15:29.229Z,19.90
2018-11-28T18:19:36.981Z,19.63
2018-11-28T18:23:44.861Z,39.57
2018-11-28T18:27:55.277Z,19.07
2018-11-28T18:32:03.420Z,19.93
2018-11-28T18:36:17.072Z,19.93
2018-11-28T18:40:25.408Z,18.43
2018-11-28T18:44:34.131Z,20.53
2018-11-28T18:48:47.352Z,20.13
2018-11-28T18:52:59.495Z,19.80
2018-11-28T18:57:16.341Z,18.53
2018-11-28T19:01:28.208Z,19.23
2018-11-28T19:05:36.655Z,20.13
2018-11-28T19:09:54.079Z,18.87
2018-11-28T19:14:01.758Z,20.03
2018-11-28T19:18:09.752Z,18.63
2018-11-28T19:22:17.854Z,20.80
2018-11-28T19:26:26.219Z,19.20
2018-11-28T19:30:45.993Z,18.37
2018-11-28T19:34:58.851Z,17.60
2018-11-28T19:39:11.907Z,19.50
2018-11-28T19:43:19.971Z,20.77
2018-11-28T19:47:28.054Z,22.03
2018-11-28T19:51:35.761Z,21.70
2018-11-28T19:55:44.263Z,22.10
2018-11-28T19:59:51.889Z,22.73
2018-11-28T20:04:02.551Z,22.43
2018-11-28T20:08:11.493Z,21.90
2018-11-28T20:12:19.413Z,22.53
2018-11-28T20:16:28.755Z,21.07
2018-11-28T20:20:36.553Z,22.83
2018-11-28T20:24:46.927Z,24.87
2018-11-28T20:28:54.405Z,24.30
2018-11-28T20:33:03.030Z,24.60
2018-11-28T20:37:12.047Z,25.83
2018-11-28T20:41:19.933Z,26.07
2018-11-28T20:45:27.786Z,25.90
2018-11-28T20:49:36.429Z,23.80
2018-11-28T20:53:44.388Z,24.23
2018-11-28T20:57:53.202Z,24.63
2018-11-28T21:02:00.776Z,26.10
2018-11-28T21:06:08.976Z,25.43
2018-11-28T21:10:36.887Z,29.27
2018-11-28T21:14:44.385Z,27.27
2018-11-28T21:18:51.989Z,25.67
2018-11-28T21:23:13.177Z,27.53
2018-11-28T21:27:23.573Z,26.57
2018-11-28T21:31:31.318Z,25.13
2018-11-28T21:35:53.432Z,26.77
2018-11-28T21:40:00.992Z,25.50
2018-11-28T21:44:08.867Z,24.07
2018-11-28T21:48:16.489Z,25.27
2018-11-28T21:52:24.078Z,27.10
2018-11-28T21:56:31.580Z,21.20
2018-11-28T22:00:39.983Z,25.83
2018-11-28T22:04:47.589Z,26.13
2018-11-28T22:08:55.352Z,23.60
2018-11-28T22:13:04.433Z,23.80
2018-11-28T22:17:12.550Z,24.83
2018-11-28T22:21:20.549Z,24.70
2018-11-28T22:25:34.110Z,27.40
2018-11-28T22:29:41.971Z,25.80
2018-11-28T22:33:49.575Z,26.60
2018-11-28T22:37:57.034Z,28.27
2018-11-28T22:42:04.846Z,29.07
2018-11-28T22:46:12.500Z,28.73
2018-11-28T22:50:20.233Z,29.17
2018-11-28T22:54:27.752Z,29.83
2018-11-28T22:58:35.276Z,29.53
2018-11-28T23:03:17.126Z,27.87
2018-11-28T23:07:24.592Z,29.63
2018-11-28T23:11:32.291Z,28.53
2018-11-28T23:15:40.834Z,29.93
2018-11-28T23:19:48.633Z,30.20
2018-11-28T23:23:56.257Z,25.67
2018-11-28T23:28:04.109Z,27.73
2018-11-28T23:32:14.333Z,27.20
2018-11-28T23:36:22.038Z,30.23
2018-11-28T23:40:30.297Z,30.97
2018-11-28T23:44:37.915Z,29.47
2018-11-28T23:48:45.747Z,28.73
2018-11-28T23:52:54.545Z,28.90
2018-11-28T23:57:02.256Z,30.40
